createdAt,value
2023-01-12T00:02:22.088Z,7.62
2023-01-12T00:04:49.993Z,7.62
2023-01-12T00:07:18.295Z,7.49
2023-01-12T00:09:45.913Z,7.59
2023-01-12T00:12:13.799Z,7.48
2023-01-12T00:14:41.369Z,7.49
2023-01-12T00:17:11.876Z,7.48
2023-01-12T00:19:40.235Z,7.53
2023-01-12T00:22:11.657Z,7.61
2023-01-12T00:24:45.437Z,7.75
2023-01-12T00:27:16.907Z,7.68
2023-01-12T00:29:46.599Z,7.77
2023-01-12T00:32:20.031Z,8.18
2023-01-12T00:34:47.751Z,8.06
2023-01-12T00:37:15.647Z,8.06
2023-01-12T00:39:53.107Z,7.95
2023-01-12T00:42:42.907Z,8.08
2023-01-12T00:45:31.396Z,7.99
2023-01-12T00:47:59.018Z,8.11
2023-01-12T00:50:26.592Z,8.27
2023-01-12T00:52:54.016Z,8.11
2023-01-12T00:55:21.574Z,7.97
2023-01-12T00:57:49.137Z,8.20
2023-01-12T01:00:17.715Z,8.01
2023-01-12T01:02:45.330Z,7.78
2023-01-12T01:05:13.027Z,7.95
2023-01-12T01:07:40.514Z,7.83
2023-01-12T01:10:09.017Z,7.82
2023-01-12T01:12:36.751Z,7.58
2023-01-12T01:15:04.696Z,7.70
2023-01-12T01:17:32.281Z,7.67
2023-01-12T01:19:59.787Z,7.76
2023-01-12T01:22:27.661Z,7.73
2023-01-12T01:24:55.137Z,7.68
2023-01-12T01:27:22.678Z,7.84
2023-01-12T01:29:50.152Z,7.89
2023-01-12T01:32:17.653Z,7.82
2023-01-12T01:34:46.481Z,7.73
2023-01-12T01:37:14.034Z,7.89
2023-01-12T01:39:41.494Z,7.81
2023-01-12T01:42:28.345Z,7.91
2023-01-12T01:44:59.393Z,7.97
2023-01-12T01:47:39.952Z,7.90
2023-01-12T01:50:18.893Z,7.79
2023-01-12T01:52:53.857Z,7.69
2023-01-12T01:55:37.056Z,7.58
2023-01-12T01:58:15.438Z,7.74
2023-01-12T02:00:44.420Z,7.77
2023-01-12T02:03:13.678Z,7.93
2023-01-12T02:05:46.168Z,7.89
2023-01-12T02:08:51.749Z,8.08
2023-01-12T02:11:39.233Z,7.93
2023-01-12T02:14:25.383Z,7.70
2023-01-12T02:17:31.365Z,7.57
2023-01-12T02:20:39.967Z,7.52
2023-01-12T02:23:54.545Z,7.64
2023-01-12T02:26:53.161Z,7.61
2023-01-12T02:29:38.577Z,7.45
2023-01-12T02:32:30.812Z,7.58
2023-01-12T02:35:22.386Z,7.64
2023-01-12T02:38:03.191Z,7.53
2023-01-12T02:40:59.371Z,7.52
2023-01-12T02:43:31.690Z,7.41
2023-01-12T02:46:23.416Z,7.44
2023-01-12T02:48:56.330Z,7.78
2023-01-12T02:51:51.267Z,7.77
2023-01-12T02:54:21.289Z,7.95
2023-01-12T02:56:53.906Z,7.57
2023-01-12T02:59:27.172Z,7.51
2023-01-12T03:02:04.735Z,7.49
2023-01-12T03:04:33.671Z,7.37
2023-01-12T03:07:01.030Z,7.42
2023-01-12T03:09:37.925Z,7.72
2023-01-12T03:12:19.653Z,7.72
2023-01-12T03:14:51.854Z,7.39
2023-01-12T03:17:40.341Z,7.26
2023-01-12T03:20:24.429Z,7.27
2023-01-12T03:23:00.896Z,7.15
2023-01-12T03:25:32.873Z,7.23
2023-01-12T03:28:04.948Z,7.26
2023-01-12T03:30:56.838Z,7.31
2023-01-12T03:33:25.993Z,7.46
2023-01-12T03:36:22.111Z,7.40
2023-01-12T03:39:32.784Z,7.24
2023-01-12T03:42:29.040Z,7.46
2023-01-12T03:45:39.575Z,7.27
2023-01-12T03:48:47.024Z,7.27
2023-01-12T03:51:24.072Z,7.40
2023-01-12T03:53:53.312Z,7.40
2023-01-12T03:56:25.325Z,7.37
2023-01-12T03:58:53.507Z,7.52
2023-01-12T04:01:21.221Z,7.48
2023-01-12T04:03:48.719Z,7.74
2023-01-12T04:06:16.676Z,8.01
2023-01-12T04:08:44.101Z,7.55
2023-01-12T04:11:30.358Z,7.68
2023-01-12T04:13:57.836Z,7.60
2023-01-12T04:16:25.482Z,7.61
2023-01-12T04:18:52.969Z,7.29
2023-01-12T04:21:39.282Z,7.09
2023-01-12T04:24:06.999Z,7.11
2023-01-12T04:26:34.428Z,7.26
2023-01-12T04:29:02.406Z,7.29
2023-01-12T04:31:29.929Z,7.27
2023-01-12T04:33:57.476Z,7.43
2023-01-12T04:36:25.015Z,7.34
2023-01-12T04:38:52.434Z,7.34
2023-01-12T04:41:19.881Z,7.27
2023-01-12T04:43:47.727Z,7.22
2023-01-12T04:46:15.931Z,7.28
2023-01-12T04:48:45.589Z,7.36
2023-01-12T04:51:13.734Z,7.16
2023-01-12T04:53:41.248Z,7.27
2023-01-12T04:56:09.742Z,7.22
2023-01-12T04:58:37.532Z,7.06
2023-01-12T05:01:19.935Z,7.01
2023-01-12T05:03:47.457Z,7.31
2023-01-12T05:06:14.977Z,7.33
2023-01-12T05:09:01.031Z,7.24
2023-01-12T05:11:29.924Z,7.40
2023-01-12T05:13:58.212Z,7.42
2023-01-12T05:16:26.738Z,7.46
2023-01-12T05:18:54.492Z,7.22
2023-01-12T05:21:23.257Z,7.17
2023-01-12T05:23:54.637Z,7.30
2023-01-12T05:26:22.128Z,7.35
2023-01-12T05:28:50.635Z,7.43
2023-01-12T05:31:19.674Z,7.45
2023-01-12T05:33:48.890Z,7.43
2023-01-12T05:36:18.209Z,7.30
2023-01-12T05:38:45.663Z,7.30
2023-01-12T05:41:14.865Z,7.36
2023-01-12T05:43:52.629Z,7.35
2023-01-12T05:46:27.910Z,7.31
2023-01-12T05:48:57.570Z,7.29
2023-01-12T05:51:27.727Z,7.26
2023-01-12T05:53:55.656Z,7.30
2023-01-12T05:56:28.176Z,7.29
2023-01-12T05:58:58.815Z,7.29
2023-01-12T06:01:28.057Z,7.25
2023-01-12T06:04:01.431Z,7.29
2023-01-12T06:06:31.491Z,7.26
2023-01-12T06:09:00.951Z,7.32
2023-01-12T06:11:47.297Z,7.31
2023-01-12T06:14:17.929Z,7.30
2023-01-12T06:16:45.469Z,7.31
2023-01-12T06:19:13.435Z,7.32
2023-01-12T06:21:41.399Z,7.33
2023-01-12T06:24:09.559Z,7.35
2023-01-12T06:26:37.027Z,7.36
2023-01-12T06:29:07.039Z,7.34
2023-01-12T06:31:34.709Z,7.41
2023-01-12T06:34:02.389Z,7.52
2023-01-12T06:36:29.880Z,7.76
2023-01-12T06:38:57.356Z,7.86
2023-01-12T06:41:43.431Z,7.95
2023-01-12T06:44:10.888Z,8.04
2023-01-12T06:46:38.435Z,7.96
2023-01-12T06:49:06.193Z,7.80
2023-01-12T06:51:33.665Z,7.77
2023-01-12T06:54:01.529Z,7.78
2023-01-12T06:56:29.383Z,7.84
2023-01-12T06:58:56.911Z,7.82
2023-01-12T07:01:27.050Z,8.06
2023-01-12T07:03:54.916Z,8.30
2023-01-12T07:06:22.521Z,8.43
2023-01-12T07:08:50.035Z,8.37
2023-01-12T07:11:17.495Z,8.23
2023-01-12T07:13:45.010Z,8.16
2023-01-12T07:16:13.667Z,8.11
2023-01-12T07:18:41.200Z,8.24
2023-01-12T07:21:13.553Z,8.39
2023-01-12T07:23:44.096Z,8.65
2023-01-12T07:26:12.270Z,8.63
2023-01-12T07:28:40.305Z,8.38
2023-01-12T07:31:09.311Z,8.22
2023-01-12T07:33:38.528Z,8.20
2023-01-12T07:36:06.930Z,8.21
2023-01-12T07:38:34.826Z,8.27
2023-01-12T07:41:03.458Z,8.43
2023-01-12T07:43:33.726Z,8.61
2023-01-12T07:46:02.163Z,8.66
2023-01-12T07:48:30.819Z,8.69
2023-01-12T07:51:00.036Z,8.60
2023-01-12T07:53:27.557Z,8.84
2023-01-12T07:55:55.046Z,8.97
2023-01-12T07:58:22.519Z,9.52
2023-01-12T08:00:50.049Z,9.27
2023-01-12T08:03:17.585Z,9.11
2023-01-12T08:05:45.097Z,8.66
2023-01-12T08:08:12.585Z,8.53
2023-01-12T08:10:40.986Z,8.62
2023-01-12T08:13:08.500Z,8.78
2023-01-12T08:15:49.480Z,9.19
2023-01-12T08:18:23.993Z,9.17
2023-01-12T08:20:54.349Z,9.21
2023-01-12T08:23:32.113Z,8.99
2023-01-12T08:26:05.113Z,9.33
2023-01-12T08:28:38.593Z,9.32
2023-01-12T08:31:11.125Z,8.89
2023-01-12T08:33:39.475Z,8.85
2023-01-12T08:38:44.729Z,8.54
2023-01-12T08:41:31.002Z,8.54
2023-01-12T08:44:02.220Z,8.82
2023-01-12T08:46:48.617Z,9.03
2023-01-12T08:49:19.370Z,8.99
2023-01-12T08:51:47.832Z,9.02
2023-01-12T08:54:19.008Z,8.87
2023-01-12T08:56:47.097Z,8.87
2023-01-12T08:59:14.681Z,8.89
2023-01-12T09:01:42.884Z,8.69
2023-01-12T09:04:10.466Z,8.89
2023-01-12T09:06:42.703Z,8.91
2023-01-12T09:09:14.772Z,9.04
2023-01-12T09:11:44.231Z,9.03
2023-01-12T09:14:15.509Z,8.74
2023-01-12T09:16:43.973Z,8.80
2023-01-12T09:19:11.781Z,9.06
2023-01-12T09:21:41.469Z,9.16
2023-01-12T09:24:09.599Z,9.17
2023-01-12T09:26:41.148Z,9.17
2023-01-12T09:29:10.907Z,9.22
2023-01-12T09:31:41.292Z,9.24
2023-01-12T09:34:08.951Z,9.14
2023-01-12T09:36:38.913Z,9.17
2023-01-12T09:39:12.825Z,9.11
2023-01-12T09:42:08.835Z,9.28
2023-01-12T09:45:04.120Z,9.43
2023-01-12T09:47:41.700Z,9.52
2023-01-12T09:50:17.592Z,9.64
2023-01-12T09:52:55.903Z,9.66
2023-01-12T09:55:26.631Z,9.78
2023-01-12T09:58:14.993Z,9.83
2023-01-12T10:00:44.214Z,9.76
2023-01-12T10:03:19.664Z,10.11
2023-01-12T10:06:00.787Z,10.01
2023-01-12T10:08:53.852Z,10.03
2023-01-12T10:12:09.007Z,10.30
2023-01-12T10:15:00.053Z,10.53
2023-01-12T10:17:51.578Z,10.63
2023-01-12T10:20:45.153Z,10.65
2023-01-12T10:23:16.380Z,10.80
2023-01-12T10:25:51.774Z,10.86
2023-01-12T10:28:33.248Z,11.14
2023-01-12T10:31:03.676Z,10.96
2023-01-12T10:33:34.676Z,10.70
2023-01-12T10:36:21.454Z,10.51
2023-01-12T10:39:04.567Z,10.65
2023-01-12T10:41:38.073Z,10.93
2023-01-12T10:44:23.425Z,11.14
2023-01-12T10:47:10.844Z,10.97
2023-01-12T10:49:38.393Z,11.02
2023-01-12T10:52:35.656Z,11.12
2023-01-12T10:55:03.360Z,10.87
2023-01-12T10:57:31.006Z,10.93
2023-01-12T11:00:02.785Z,11.07
2023-01-12T11:02:45.628Z,10.66
2023-01-12T11:05:38.720Z,10.68
2023-01-12T11:08:33.914Z,10.79
2023-01-12T11:11:24.367Z,10.73
2023-01-12T11:13:58.849Z,10.90
2023-01-12T11:16:33.891Z,10.92
2023-01-12T11:19:28.407Z,11.06
2023-01-12T11:22:08.164Z,10.90
2023-01-12T11:24:45.327Z,10.92
2023-01-12T11:27:28.851Z,11.13
2023-01-12T11:30:05.078Z,10.56
2023-01-12T11:32:50.107Z,10.42
2023-01-12T11:35:37.129Z,10.30
2023-01-12T11:38:21.184Z,10.70
2023-01-12T11:40:49.476Z,10.45
2023-01-12T11:43:51.090Z,10.63
2023-01-12T11:46:42.517Z,10.55
2023-01-12T11:49:27.508Z,10.75
2023-01-12T11:51:57.696Z,10.90
2023-01-12T11:54:31.190Z,10.70
2023-01-12T11:57:26.447Z,10.69
2023-01-12T11:59:53.839Z,10.56
2023-01-12T12:02:55.215Z,10.60
2023-01-12T12:06:03.872Z,10.51
2023-01-12T12:08:48.713Z,10.60
2023-01-12T12:11:54.983Z,10.62
2023-01-12T12:15:21.551Z,10.61
2023-01-12T12:18:09.742Z,10.67
2023-01-12T12:20:45.916Z,10.80
2023-01-12T12:23:30.249Z,10.84
2023-01-12T12:26:21.192Z,10.87
2023-01-12T12:29:33.906Z,10.79
2023-01-12T12:32:31.810Z,10.81
2023-01-12T12:35:30.065Z,10.86
2023-01-12T12:38:15.475Z,10.92
2023-01-12T12:41:55.093Z,10.76
2023-01-12T12:44:55.412Z,10.95
2023-01-12T12:47:52.843Z,11.08
2023-01-12T12:50:56.524Z,11.04
2023-01-12T12:53:37.042Z,10.92
2023-01-12T12:56:13.182Z,11.06
2023-01-12T12:58:52.700Z,10.96
2023-01-12T13:01:27.301Z,10.99
2023-01-12T13:04:03.308Z,10.99
2023-01-12T13:06:39.036Z,11.03
2023-01-12T13:09:12.480Z,11.12
2023-01-12T13:12:00.231Z,11.34
2023-01-12T13:14:35.925Z,11.62
2023-01-12T13:17:21.704Z,11.35
2023-01-12T13:20:16.786Z,11.34
2023-01-12T13:22:50.097Z,11.30
2023-01-12T13:25:29.592Z,11.00
2023-01-12T13:28:07.842Z,10.85
2023-01-12T13:30:40.216Z,10.89
2023-01-12T13:33:27.931Z,10.86
2023-01-12T13:36:08.140Z,10.80
2023-01-12T13:39:04.011Z,10.93
2023-01-12T13:41:53.729Z,10.91
2023-01-12T13:44:35.136Z,10.91
2023-01-12T13:47:24.962Z,10.71
2023-01-12T13:49:57.940Z,10.63
2023-01-12T13:52:35.974Z,10.54
2023-01-12T13:55:20.681Z,10.49
2023-01-12T13:58:02.547Z,10.45
2023-01-12T14:00:33.027Z,10.48
2023-01-12T14:03:03.104Z,10.44
2023-01-12T14:06:04.438Z,10.44
2023-01-12T14:08:55.751Z,10.44
2023-01-12T14:12:04.351Z,10.41
2023-01-12T14:15:15.030Z,10.38
2023-01-12T14:17:49.829Z,10.36
2023-01-12T14:20:26.667Z,10.35
2023-01-12T14:23:35.254Z,10.39
2023-01-12T14:26:13.500Z,10.39
2023-01-12T14:28:48.532Z,10.43
2023-01-12T14:31:23.183Z,10.43
2023-01-12T14:33:56.925Z,10.42
2023-01-12T14:36:42.801Z,10.48
2023-01-12T14:39:21.826Z,10.45
2023-01-12T14:42:13.246Z,10.43
2023-01-12T14:45:14.630Z,10.41
2023-01-12T14:47:43.512Z,10.36
2023-01-12T14:50:17.576Z,10.30
2023-01-12T14:52:47.007Z,10.25
2023-01-12T14:55:22.703Z,10.28
2023-01-12T14:57:57.541Z,10.37
2023-01-12T15:00:29.256Z,10.33
2023-01-12T15:03:01.037Z,10.40
2023-01-12T15:05:31.745Z,10.30
2023-01-12T15:08:04.831Z,10.23
2023-01-12T15:10:35.416Z,10.23
2023-01-12T15:13:29.979Z,10.22
2023-01-12T15:16:16.894Z,10.14
2023-01-12T15:19:03.234Z,10.19
2023-01-12T15:21:51.799Z,10.15
2023-01-12T15:24:45.486Z,10.09
2023-01-12T15:27:16.916Z,10.06
2023-01-12T15:30:04.636Z,10.17
2023-01-12T15:32:48.209Z,10.13
2023-01-12T15:35:26.603Z,10.29
2023-01-12T15:37:58.703Z,10.34
2023-01-12T15:40:28.006Z,10.21
2023-01-12T15:42:55.521Z,10.08
2023-01-12T15:45:39.766Z,10.01
2023-01-12T15:48:09.235Z,9.96
2023-01-12T15:50:42.829Z,10.09
2023-01-12T15:53:22.119Z,10.00
2023-01-12T15:55:50.287Z,9.86
2023-01-12T15:58:19.608Z,9.79
2023-01-12T16:00:47.396Z,9.76
2023-01-12T16:03:38.238Z,9.83
2023-01-12T16:06:04.661Z,9.68
2023-01-12T16:08:34.535Z,9.62
2023-01-12T16:11:13.484Z,9.61
2023-01-12T16:13:42.144Z,9.57
2023-01-12T16:16:16.631Z,9.59
2023-01-12T16:18:46.475Z,9.59
2023-01-12T16:21:19.631Z,9.65
2023-01-12T16:23:47.597Z,9.87
2023-01-12T16:26:16.451Z,9.91
2023-01-12T16:28:46.070Z,9.92
2023-01-12T16:31:15.662Z,9.76
2023-01-12T16:33:48.226Z,9.67
2023-01-12T16:36:19.189Z,9.63
2023-01-12T16:38:49.829Z,9.62
2023-01-12T16:41:44.067Z,9.60
2023-01-12T16:44:12.200Z,9.57
2023-01-12T16:46:39.748Z,9.51
2023-01-12T16:49:08.323Z,9.50
2023-01-12T16:51:35.866Z,9.51
2023-01-12T16:54:07.045Z,9.48
2023-01-12T16:56:35.609Z,9.64
2023-01-12T16:59:05.469Z,9.66
2023-01-12T17:01:35.584Z,9.70
2023-01-12T17:04:03.355Z,9.70
2023-01-12T17:06:31.554Z,9.66
2023-01-12T17:09:03.270Z,9.61
2023-01-12T17:11:35.094Z,9.52
2023-01-12T17:14:22.880Z,9.55
2023-01-12T17:16:57.671Z,9.89
2023-01-12T17:19:28.244Z,10.11
2023-01-12T17:21:58.352Z,10.16
2023-01-12T17:24:30.483Z,10.17
2023-01-12T17:26:58.723Z,9.93
2023-01-12T17:29:28.186Z,9.60
2023-01-12T17:32:06.009Z,9.52
2023-01-12T17:34:43.283Z,9.37
2023-01-12T17:37:12.753Z,9.32
2023-01-12T17:39:45.083Z,9.27
2023-01-12T17:42:35.290Z,9.27
2023-01-12T17:45:05.838Z,9.26
2023-01-12T17:47:38.781Z,9.29
2023-01-12T17:50:11.107Z,9.30
2023-01-12T17:52:38.690Z,9.30
2023-01-12T17:55:06.912Z,9.37
2023-01-12T17:57:36.491Z,9.41
2023-01-12T18:00:16.268Z,9.40
2023-01-12T18:02:45.656Z,9.36
2023-01-12T18:05:13.391Z,9.32
2023-01-12T18:07:42.130Z,9.31
2023-01-12T18:10:11.581Z,9.31
2023-01-12T18:12:40.426Z,9.30
2023-01-12T18:15:10.320Z,9.28
2023-01-12T18:17:39.515Z,9.26
2023-01-12T18:20:09.387Z,9.28
2023-01-12T18:22:37.163Z,9.28
2023-01-12T18:25:06.758Z,9.30
2023-01-12T18:27:34.305Z,9.36
2023-01-12T18:30:02.306Z,9.35
2023-01-12T18:32:30.623Z,9.39
2023-01-12T18:34:59.419Z,9.43
2023-01-12T18:37:28.430Z,9.44
2023-01-12T18:40:01.439Z,9.48
2023-01-12T18:42:49.068Z,9.45
2023-01-12T18:45:21.957Z,9.40
2023-01-12T18:48:09.437Z,9.26
2023-01-12T18:50:57.000Z,9.29
2023-01-12T18:53:33.578Z,9.24
2023-01-12T18:56:09.450Z,9.23
2023-01-12T18:58:44.856Z,9.27
2023-01-12T19:01:32.261Z,9.35
2023-01-12T19:04:03.294Z,9.31
2023-01-12T19:06:47.215Z,9.13
2023-01-12T19:09:34.954Z,9.06
2023-01-12T19:12:12.150Z,8.99
2023-01-12T19:15:00.325Z,9.25
2023-01-12T19:17:35.994Z,9.25
2023-01-12T19:20:10.315Z,9.20
2023-01-12T19:23:00.026Z,9.11
2023-01-12T19:25:50.470Z,9.10
2023-01-12T19:28:36.673Z,9.10
2023-01-12T19:31:16.545Z,9.23
2023-01-12T19:33:46.124Z,9.43
2023-01-12T19:36:20.049Z,9.26
2023-01-12T19:38:52.974Z,9.16
2023-01-12T19:41:41.594Z,9.17
2023-01-12T19:44:09.524Z,9.16
2023-01-12T19:46:38.090Z,9.06
2023-01-12T19:49:08.770Z,9.01
2023-01-12T19:51:43.311Z,9.00
2023-01-12T19:54:13.177Z,8.90
2023-01-12T19:56:59.188Z,8.99
2023-01-12T19:59:28.877Z,9.23
2023-01-12T20:02:21.459Z,9.23
2023-01-12T20:04:51.134Z,9.25
2023-01-12T20:07:21.392Z,9.10
2023-01-12T20:09:51.943Z,9.40
2023-01-12T20:12:22.330Z,9.07
2023-01-12T20:14:55.245Z,9.30
2023-01-12T20:17:28.222Z,9.05
2023-01-12T20:20:03.515Z,9.37
2023-01-12T20:22:37.072Z,9.22
2023-01-12T20:25:07.577Z,9.24
2023-01-12T20:27:37.463Z,9.14
2023-01-12T20:30:11.475Z,9.17
2023-01-12T20:32:46.761Z,8.92
2023-01-12T20:35:23.124Z,8.79
2023-01-12T20:37:55.330Z,9.06
2023-01-12T20:40:23.374Z,8.78
2023-01-12T20:42:51.534Z,8.74
2023-01-12T20:45:19.299Z,8.66
2023-01-12T20:47:47.811Z,8.75
2023-01-12T20:50:16.917Z,8.98
2023-01-12T20:52:48.273Z,9.23
2023-01-12T20:55:15.977Z,9.06
2023-01-12T20:57:43.887Z,8.97
2023-01-12T21:00:14.277Z,9.05
2023-01-12T21:02:42.832Z,8.99
2023-01-12T21:05:14.730Z,8.90
2023-01-12T21:07:44.789Z,8.69
2023-01-12T21:10:14.108Z,8.74
2023-01-12T21:12:44.205Z,8.82
2023-01-12T21:15:13.711Z,9.03
2023-01-12T21:17:42.918Z,8.87
2023-01-12T21:20:12.401Z,8.75
2023-01-12T21:22:40.062Z,8.58
2023-01-12T21:25:11.129Z,8.76
2023-01-12T21:27:39.526Z,8.92
2023-01-12T21:30:11.252Z,8.69
2023-01-12T21:32:39.032Z,8.84
2023-01-12T21:35:10.658Z,8.69
2023-01-12T21:37:38.249Z,8.98
2023-01-12T21:40:07.000Z,9.01
2023-01-12T21:42:53.141Z,8.71
2023-01-12T21:45:23.732Z,8.68
2023-01-12T21:47:52.204Z,8.86
2023-01-12T21:50:19.684Z,8.76
2023-01-12T21:52:48.221Z,8.79
2023-01-12T21:55:16.005Z,8.57
2023-01-12T21:57:46.547Z,8.60
2023-01-12T22:00:14.968Z,8.87
2023-01-12T22:02:43.144Z,8.55
2023-01-12T22:05:13.703Z,8.38
2023-01-12T22:07:41.878Z,8.66
2023-01-12T22:10:22.090Z,8.74
2023-01-12T22:12:55.711Z,8.67
2023-01-12T22:15:25.007Z,8.60
2023-01-12T22:17:54.688Z,8.34
2023-01-12T22:20:27.800Z,8.89
2023-01-12T22:22:55.765Z,8.73
2023-01-12T22:25:23.543Z,8.61
2023-01-12T22:27:51.145Z,8.56
2023-01-12T22:30:24.126Z,8.50
2023-01-12T22:32:56.293Z,8.35
2023-01-12T22:35:26.208Z,8.33
2023-01-12T22:37:55.853Z,8.20
2023-01-12T22:40:29.860Z,8.31
2023-01-12T22:43:16.061Z,8.21
2023-01-12T22:45:45.767Z,8.08
2023-01-12T22:48:13.263Z,8.07
2023-01-12T22:50:40.826Z,8.18
2023-01-12T22:53:08.384Z,8.17
2023-01-12T22:55:42.021Z,8.10
2023-01-12T22:58:09.627Z,7.90
2023-01-12T23:00:39.821Z,7.85
2023-01-12T23:03:12.040Z,7.93
2023-01-12T23:05:56.247Z,8.12
2023-01-12T23:08:25.370Z,8.08
2023-01-12T23:11:01.187Z,8.08
2023-01-12T23:13:28.849Z,8.16
2023-01-12T23:15:58.139Z,8.21
2023-01-12T23:18:29.482Z,8.13
2023-01-12T23:21:11.198Z,8.63
2023-01-12T23:23:46.635Z,8.35
2023-01-12T23:26:18.450Z,8.39
2023-01-12T23:28:50.218Z,8.32
2023-01-12T23:31:21.706Z,8.20
2023-01-12T23:33:50.541Z,8.19
2023-01-12T23:36:21.902Z,8.25
2023-01-12T23:39:01.071Z,8.07
2023-01-12T23:41:32.345Z,8.04
2023-01-12T23:44:02.696Z,8.09
2023-01-12T23:46:33.904Z,8.19
2023-01-12T23:49:01.940Z,8.05
2023-01-12T23:51:31.220Z,8.11
2023-01-12T23:54:03.068Z,8.01
2023-01-12T23:56:32.918Z,7.88
2023-01-12T23:59:00.739Z,7.98
